createdAt,value
2022-10-03T00:00:24.496Z,1015.25
2022-10-03T00:05:28.662Z,1015.30
2022-10-03T00:10:32.850Z,1015.33
2022-10-03T00:15:35.149Z,1015.30
2022-10-03T00:20:39.248Z,1015.34
2022-10-03T00:25:43.458Z,1015.47
2022-10-03T00:30:47.585Z,1015.50
2022-10-03T00:35:51.804Z,1015.63
2022-10-03T00:40:55.929Z,1015.60
2022-10-03T00:51:04.241Z,1015.58
2022-10-03T00:56:08.403Z,1015.75
2022-10-03T01:01:12.623Z,1015.75
2022-10-03T01:06:16.753Z,1015.89
2022-10-03T01:11:20.901Z,1015.82
2022-10-03T01:16:25.123Z,1015.84
2022-10-03T01:21:29.215Z,1015.86
2022-10-03T01:31:37.718Z,1015.86
2022-10-03T01:36:39.837Z,1015.88
2022-10-03T01:41:51.388Z,1015.86
2022-10-03T01:47:02.203Z,1015.86
2022-10-03T01:52:13.313Z,1015.95
2022-10-03T01:57:24.504Z,1015.93
2022-10-03T02:02:35.697Z,1015.99
2022-10-03T02:07:44.951Z,1015.96
2022-10-03T02:12:47.234Z,1016.12
2022-10-03T02:17:51.365Z,1016.16
2022-10-03T02:22:55.547Z,1016.20
2022-10-03T02:27:59.818Z,1016.23
2022-10-03T02:33:03.866Z,1016.26
2022-10-03T02:38:08.001Z,1016.30
2022-10-03T02:43:12.223Z,1016.38
2022-10-03T02:48:31.348Z,1016.39
2022-10-03T02:53:20.506Z,1016.46
2022-10-03T02:58:24.707Z,1016.32
2022-10-03T03:03:28.821Z,1016.39
2022-10-03T03:08:33.012Z,1016.46
2022-10-03T03:13:37.197Z,1016.42
2022-10-03T03:18:41.381Z,1016.50
2022-10-03T03:23:45.501Z,1016.49
2022-10-03T03:28:53.628Z,1016.49
2022-10-03T03:33:53.835Z,1016.45
2022-10-03T03:38:57.993Z,1016.52
2022-10-03T03:44:02.125Z,1016.52
2022-10-03T03:49:06.318Z,1016.58
2022-10-03T03:54:10.454Z,1016.56
2022-10-03T03:59:12.773Z,1016.57
2022-10-03T04:04:16.995Z,1016.68
2022-10-03T04:09:21.117Z,1016.60
2022-10-03T04:14:23.332Z,1016.65
2022-10-03T04:19:27.501Z,1016.61
2022-10-03T04:24:31.692Z,1016.70
2022-10-03T04:29:35.845Z,1016.74
2022-10-03T04:34:40.002Z,1016.77
2022-10-03T04:39:44.301Z,1016.81
2022-10-03T04:44:48.318Z,1016.80
2022-10-03T04:49:52.502Z,1016.73
2022-10-03T04:54:56.615Z,1016.76
2022-10-03T05:00:00.915Z,1016.75
2022-10-03T05:05:04.943Z,1016.75
2022-10-03T05:10:13.290Z,1016.84
2022-10-03T05:15:13.273Z,1016.83
2022-10-03T05:20:17.454Z,1016.79
2022-10-03T05:25:21.619Z,1016.82
2022-10-03T05:30:25.780Z,1016.91
2022-10-03T05:35:29.911Z,1016.93
2022-10-03T05:40:34.115Z,1016.96
2022-10-03T05:45:38.265Z,1017.00
2022-10-03T05:50:42.433Z,1017.01
2022-10-03T05:55:46.604Z,1017.04
2022-10-03T06:00:49.011Z,1017.18
2022-10-03T06:05:53.027Z,1017.24
2022-10-03T06:10:57.204Z,1017.28
2022-10-03T06:16:01.486Z,1017.29
2022-10-03T06:21:05.501Z,1017.39
2022-10-03T06:26:09.680Z,1017.41
2022-10-03T06:31:13.915Z,1017.38
2022-10-03T06:36:18.054Z,1017.35
2022-10-03T06:41:22.151Z,1017.41
2022-10-03T06:46:26.366Z,1017.42
2022-10-03T06:51:30.852Z,1017.40
2022-10-03T06:56:34.675Z,1017.31
2022-10-03T07:01:39.082Z,1017.36
2022-10-03T07:06:42.959Z,1017.42
2022-10-03T07:11:47.160Z,1017.51
2022-10-03T07:16:51.395Z,1017.57
2022-10-03T07:21:55.451Z,1017.50
2022-10-03T07:26:59.605Z,1017.59
2022-10-03T07:32:03.812Z,1017.61
2022-10-03T07:37:07.967Z,1017.59
2022-10-03T07:47:14.373Z,1017.73
2022-10-03T07:52:18.524Z,1017.74
2022-10-03T07:57:20.814Z,1017.83
2022-10-03T08:02:25.033Z,1017.78
2022-10-03T08:07:27.246Z,1017.87
2022-10-03T08:12:31.398Z,1017.95
2022-10-03T08:17:35.576Z,1017.91
2022-10-03T08:22:39.741Z,1017.86
2022-10-03T08:27:43.878Z,1017.92
2022-10-03T08:32:48.818Z,1017.97
2022-10-03T08:37:52.239Z,1017.92
2022-10-03T08:42:56.364Z,1017.87
2022-10-03T08:48:00.562Z,1017.90
2022-10-03T08:53:04.683Z,1017.93
2022-10-03T08:58:08.845Z,1017.86
2022-10-03T09:03:32.651Z,1017.86
2022-10-03T09:08:17.192Z,1017.90
2022-10-03T09:13:21.357Z,1017.77
2022-10-03T09:18:25.521Z,1017.80
2022-10-03T09:23:29.650Z,1017.74
2022-10-03T09:28:33.916Z,1017.76
2022-10-03T09:33:37.996Z,1017.77
2022-10-03T09:38:42.121Z,1017.72
2022-10-03T09:43:46.279Z,1017.63
2022-10-03T09:48:50.471Z,1017.60
2022-10-03T09:53:52.722Z,1017.64
2022-10-03T09:58:56.963Z,1017.57
2022-10-03T10:03:59.264Z,1017.62
2022-10-03T10:09:03.343Z,1017.58
2022-10-03T10:14:08.170Z,1017.49
2022-10-03T10:19:11.650Z,1017.52
2022-10-03T10:24:15.794Z,1017.48
2022-10-03T10:29:19.988Z,1017.51
2022-10-03T10:34:24.113Z,1017.42
2022-10-03T10:39:28.310Z,1017.45
2022-10-03T10:44:32.434Z,1017.44
2022-10-03T10:49:36.579Z,1017.40
2022-10-03T10:54:40.743Z,1017.40
2022-10-03T10:59:44.998Z,1017.37
2022-10-03T11:04:56.071Z,1017.38
2022-10-03T11:09:53.230Z,1017.35
2022-10-03T11:14:57.362Z,1017.37
2022-10-03T11:20:01.573Z,1017.32
2022-10-03T11:25:05.696Z,1017.29
2022-10-03T11:30:09.870Z,1017.24
2022-10-03T11:35:14.046Z,1017.23
2022-10-03T11:40:18.192Z,1017.24
2022-10-03T11:45:22.381Z,1017.19
2022-10-03T11:50:24.645Z,1017.22
2022-10-03T11:55:29.130Z,1017.24
2022-10-03T12:00:31.051Z,1017.30
2022-10-03T12:05:35.216Z,1017.26
2022-10-03T12:10:39.397Z,1017.11
2022-10-03T12:15:43.553Z,1017.04
2022-10-03T12:20:47.698Z,1017.11
2022-10-03T12:25:51.864Z,1017.01
2022-10-03T12:30:56.033Z,1017.14
2022-10-03T12:36:00.190Z,1017.09
2022-10-03T12:41:04.346Z,1017.06
2022-10-03T12:46:08.509Z,1016.94
2022-10-03T12:51:12.620Z,1016.94
2022-10-03T12:56:16.787Z,1016.98
2022-10-03T13:01:21.089Z,1016.98
2022-10-03T13:06:44.493Z,1017.01
2022-10-03T13:11:29.292Z,1016.95
2022-10-03T13:16:33.451Z,1016.99
2022-10-03T13:21:46.341Z,1017.04
2022-10-03T13:26:41.800Z,1017.02
2022-10-03T13:31:45.945Z,1016.99
2022-10-03T13:36:50.102Z,1016.94
2022-10-03T13:41:54.239Z,1016.91
2022-10-03T13:46:56.562Z,1016.85
2022-10-03T13:52:00.681Z,1016.85
2022-10-03T13:57:02.918Z,1016.80
2022-10-03T14:02:07.333Z,1016.71
2022-10-03T14:07:11.265Z,1016.67
2022-10-03T14:12:15.451Z,1016.76
2022-10-03T14:17:19.560Z,1016.58
2022-10-03T14:22:23.735Z,1016.60
2022-10-03T14:27:27.885Z,1016.54
2022-10-03T14:32:46.146Z,1016.51
2022-10-03T14:37:36.190Z,1016.47
2022-10-03T14:42:40.374Z,1016.44
2022-10-03T14:47:44.566Z,1016.37
2022-10-03T14:52:48.724Z,1016.34
2022-10-03T14:58:09.779Z,1016.33
2022-10-03T15:02:57.110Z,1016.26
2022-10-03T15:08:01.188Z,1016.26
2022-10-03T15:13:05.343Z,1016.16
2022-10-03T15:18:09.515Z,1016.09
2022-10-03T15:23:13.656Z,1016.09
2022-10-03T15:28:17.858Z,1016.06
2022-10-03T15:33:21.980Z,1015.97
2022-10-03T15:38:26.145Z,1015.89
2022-10-03T15:43:28.554Z,1015.84
2022-10-03T15:48:32.571Z,1015.83
2022-10-03T15:53:36.961Z,1015.77
2022-10-03T15:58:38.973Z,1015.68
2022-10-03T16:03:43.166Z,1015.71
2022-10-03T16:08:47.307Z,1015.71
2022-10-03T16:13:51.479Z,1015.62
2022-10-03T16:18:55.653Z,1015.65
2022-10-03T16:23:59.783Z,1015.65
2022-10-03T16:29:03.991Z,1015.65
2022-10-03T16:34:08.153Z,1015.67
2022-10-03T16:39:12.248Z,1015.64
2022-10-03T16:44:16.497Z,1015.65
2022-10-03T16:49:20.571Z,1015.56
2022-10-03T16:54:24.783Z,1015.60
2022-10-03T16:59:28.915Z,1015.57
2022-10-03T17:04:33.093Z,1015.59
2022-10-03T17:09:37.226Z,1015.56
2022-10-03T17:14:41.384Z,1015.56
2022-10-03T17:19:45.521Z,1015.57
2022-10-03T17:29:53.871Z,1015.56
2022-10-03T17:34:58.035Z,1015.63
2022-10-03T17:40:02.192Z,1015.59
2022-10-03T17:45:04.471Z,1015.58
2022-10-03T17:50:08.638Z,1015.63
2022-10-03T17:55:12.774Z,1015.60
2022-10-03T18:00:16.971Z,1015.65
2022-10-03T18:05:21.143Z,1015.61
2022-10-03T18:10:25.260Z,1015.59
2022-10-03T18:15:29.468Z,1015.58
2022-10-03T18:20:33.576Z,1015.57
2022-10-03T18:25:37.754Z,1015.49
2022-10-03T18:30:41.876Z,1015.52
2022-10-03T18:35:46.085Z,1015.53
2022-10-03T18:40:50.271Z,1015.45
2022-10-03T18:45:54.456Z,1015.36
2022-10-03T18:50:58.557Z,1015.41
2022-10-03T18:56:02.748Z,1015.36
2022-10-03T19:01:07.018Z,1015.37
2022-10-03T19:06:09.119Z,1015.33
2022-10-03T19:11:13.283Z,1015.37
2022-10-03T19:16:17.559Z,1015.46
2022-10-03T19:21:21.624Z,1015.51
2022-10-03T19:26:25.793Z,1015.51
2022-10-03T19:31:28.122Z,1015.70
2022-10-03T19:36:32.258Z,1015.65
2022-10-03T19:41:34.475Z,1015.58
2022-10-03T19:46:38.684Z,1015.53
2022-10-03T19:51:41.344Z,1015.48
2022-10-03T19:56:45.118Z,1015.47
2022-10-03T20:01:49.499Z,1015.47
2022-10-03T20:06:53.408Z,1015.54
2022-10-03T20:11:57.597Z,1015.54
2022-10-03T20:17:01.752Z,1015.52
2022-10-03T20:22:05.892Z,1015.50
2022-10-03T20:27:10.100Z,1015.40
2022-10-03T20:32:14.263Z,1015.45
2022-10-03T20:37:18.415Z,1015.64
2022-10-03T20:42:22.524Z,1015.48
2022-10-03T20:47:26.727Z,1015.34
2022-10-03T20:52:30.869Z,1015.43
2022-10-03T20:57:38.076Z,1015.36
2022-10-03T21:02:39.238Z,1015.38
2022-10-03T21:07:43.353Z,1015.35
2022-10-03T21:12:47.506Z,1015.36
2022-10-03T21:17:51.704Z,1015.37
2022-10-03T21:22:55.840Z,1015.33
2022-10-03T21:28:00.074Z,1015.29
2022-10-03T21:33:04.181Z,1015.21
2022-10-03T21:38:06.435Z,1015.22
2022-10-03T21:43:10.601Z,1015.24
2022-10-03T21:48:12.851Z,1015.28
2022-10-03T21:53:17.057Z,1015.20
2022-10-03T21:58:21.190Z,1015.23
2022-10-03T22:03:25.370Z,1015.16
2022-10-03T22:08:29.547Z,1015.24
2022-10-03T22:13:33.668Z,1015.29
2022-10-03T22:18:37.842Z,1015.18
2022-10-03T22:23:41.991Z,1015.28
2022-10-03T22:28:46.129Z,1015.31
2022-10-03T22:33:50.347Z,1015.18
2022-10-03T22:38:54.510Z,1015.03
2022-10-03T22:43:58.631Z,1014.86
2022-10-03T22:49:02.817Z,1014.84
2022-10-03T22:54:06.991Z,1014.95
2022-10-03T22:59:11.149Z,1014.91
2022-10-03T23:04:15.399Z,1015.03
2022-10-03T23:09:19.470Z,1014.88
2022-10-03T23:14:23.622Z,1014.78
2022-10-03T23:19:27.779Z,1014.71
2022-10-03T23:24:31.967Z,1014.73
2022-10-03T23:29:36.127Z,1014.72
2022-10-03T23:34:38.394Z,1014.67
2022-10-03T23:39:42.551Z,1014.71
2022-10-03T23:44:48.906Z,1014.75
2022-10-03T23:49:48.990Z,1014.59
2022-10-03T23:54:51.233Z,1014.47
2022-10-03T23:59:55.430Z,1014.40
